createdAt,value
2023-03-07T00:02:15.573Z,95583.47
2023-03-07T00:07:14.649Z,95599.66
2023-03-07T00:09:41.312Z,95618.22
2023-03-07T00:12:08.681Z,95621.53
2023-03-07T00:14:35.175Z,95621.53
2023-03-07T00:17:01.631Z,95630.66
2023-03-07T00:19:28.174Z,95617.75
2023-03-07T00:21:54.512Z,95598.75
2023-03-07T00:24:20.844Z,95581.47
2023-03-07T00:26:47.290Z,95583.09
2023-03-07T00:29:13.657Z,95575.00
2023-03-07T00:31:40.115Z,95557.97
2023-03-07T00:34:06.725Z,95547.25
2023-03-07T00:36:33.087Z,95541.88
2023-03-07T00:38:59.463Z,95528.13
2023-03-07T00:41:27.312Z,95526.25
2023-03-07T00:43:54.027Z,95511.56
2023-03-07T00:46:21.248Z,95490.06
2023-03-07T00:48:47.993Z,95489.84
2023-03-07T00:51:15.775Z,95483.59
2023-03-07T00:53:42.343Z,95485.13
2023-03-07T00:56:13.719Z,95493.44
2023-03-07T00:58:40.127Z,95486.63
2023-03-07T01:01:06.957Z,95474.41
2023-03-07T01:03:33.854Z,95468.53
2023-03-07T01:06:04.486Z,95452.91
2023-03-07T01:08:31.122Z,95438.22
2023-03-07T01:11:01.446Z,95434.00
2023-03-07T01:13:27.914Z,95414.25
2023-03-07T01:15:54.335Z,95412.38
2023-03-07T01:18:20.859Z,95420.22
2023-03-07T01:20:47.206Z,95392.63
2023-03-07T01:23:13.565Z,95367.75
2023-03-07T01:25:40.954Z,95366.09
2023-03-07T01:28:07.649Z,95348.69
2023-03-07T01:30:34.045Z,95337.78
2023-03-07T01:33:01.322Z,95306.91
2023-03-07T01:35:28.063Z,95278.47
2023-03-07T01:37:54.721Z,95238.97
2023-03-07T01:40:21.915Z,95209.88
2023-03-07T01:42:48.345Z,95182.66
2023-03-07T01:45:14.695Z,95161.97
2023-03-07T01:47:41.661Z,95150.97
2023-03-07T01:50:11.716Z,95120.06
2023-03-07T01:52:42.482Z,95105.53
2023-03-07T01:55:16.415Z,95093.53
2023-03-07T01:57:43.096Z,95080.91
2023-03-07T02:00:11.787Z,95049.75
2023-03-07T02:02:39.194Z,95039.56
2023-03-07T02:05:22.016Z,95021.59
2023-03-07T02:07:49.628Z,94996.00
2023-03-07T02:10:16.709Z,94959.84
2023-03-07T02:12:43.107Z,94921.50
2023-03-07T02:15:10.411Z,94891.03
2023-03-07T02:17:36.788Z,94856.66
2023-03-07T02:20:09.715Z,94812.03
2023-03-07T02:22:36.068Z,94778.47
2023-03-07T02:25:12.724Z,94744.22
2023-03-07T02:27:39.097Z,94706.72
2023-03-07T02:30:06.169Z,94656.97
2023-03-07T02:32:32.940Z,94614.31
2023-03-07T02:34:59.349Z,94562.94
2023-03-07T02:37:31.302Z,94514.53
2023-03-07T02:39:57.706Z,94467.13
2023-03-07T02:42:26.790Z,94445.00
2023-03-07T02:45:00.825Z,94403.13
2023-03-07T02:47:27.207Z,94356.28
2023-03-07T02:49:53.693Z,94321.75
2023-03-07T02:52:21.784Z,94290.78
2023-03-07T02:54:48.341Z,94253.72
2023-03-07T02:57:15.096Z,94215.28
2023-03-07T02:59:41.524Z,94179.00
2023-03-07T03:02:07.917Z,94159.13
2023-03-07T03:04:34.311Z,94124.91
2023-03-07T03:07:00.700Z,94073.59
2023-03-07T03:09:27.331Z,94036.66
2023-03-07T03:11:53.692Z,93988.41
2023-03-07T03:14:20.548Z,93933.53
2023-03-07T03:16:46.985Z,93869.00
2023-03-07T03:19:13.328Z,93797.25
2023-03-07T03:21:39.780Z,93753.38
2023-03-07T03:24:06.858Z,93683.84
2023-03-07T03:26:34.101Z,93626.13
2023-03-07T03:29:00.533Z,93574.22
2023-03-07T03:31:28.743Z,93505.88
2023-03-07T03:33:55.144Z,93445.22
2023-03-07T03:36:25.717Z,93376.25
2023-03-07T03:38:53.129Z,93349.16
2023-03-07T03:41:19.490Z,93315.09
2023-03-07T03:43:45.894Z,93301.75
2023-03-07T03:46:12.845Z,93292.06
2023-03-07T03:48:39.383Z,93285.31
2023-03-07T03:51:10.925Z,93291.72
2023-03-07T03:53:38.599Z,93260.16
2023-03-07T03:56:09.672Z,93250.44
2023-03-07T03:58:36.213Z,93234.63
2023-03-07T04:01:05.772Z,93228.22
2023-03-07T04:03:37.965Z,93235.63
2023-03-07T04:06:05.664Z,93227.22
2023-03-07T04:08:32.461Z,93220.94
2023-03-07T04:10:59.360Z,93216.59
2023-03-07T04:13:25.803Z,93222.72
2023-03-07T04:15:52.518Z,93235.78
2023-03-07T04:18:19.245Z,93233.03
2023-03-07T04:20:45.616Z,93222.34
2023-03-07T04:23:11.948Z,93215.25
2023-03-07T04:25:38.459Z,93226.72
2023-03-07T04:28:04.910Z,93227.19
2023-03-07T04:30:31.291Z,93254.56
2023-03-07T04:32:57.856Z,93265.88
2023-03-07T04:35:24.214Z,93259.75
2023-03-07T04:37:50.658Z,93250.41
2023-03-07T04:40:17.263Z,93253.75
2023-03-07T04:42:43.641Z,93242.66
2023-03-07T04:45:10.515Z,93224.44
2023-03-07T04:47:36.890Z,93204.94
2023-03-07T04:50:03.393Z,93205.38
2023-03-07T04:52:29.756Z,93176.47
2023-03-07T04:54:56.309Z,93155.38
2023-03-07T04:57:22.682Z,93139.75
2023-03-07T04:59:49.018Z,93131.66
2023-03-07T05:02:15.579Z,93121.34
2023-03-07T05:04:41.957Z,93105.47
2023-03-07T05:07:08.912Z,93090.97
2023-03-07T05:09:35.590Z,93064.19
2023-03-07T05:12:01.952Z,93016.25
2023-03-07T05:14:28.459Z,92983.22
2023-03-07T05:16:55.042Z,92934.81
2023-03-07T05:19:21.459Z,92902.28
2023-03-07T05:21:49.135Z,92890.31
2023-03-07T05:24:15.561Z,92869.16
2023-03-07T05:26:41.925Z,92850.53
2023-03-07T05:29:08.286Z,92844.41
2023-03-07T05:31:34.834Z,92828.53
2023-03-07T05:34:01.241Z,92825.34
2023-03-07T05:36:28.106Z,92817.25
2023-03-07T05:38:56.557Z,92802.38
2023-03-07T05:41:23.219Z,92772.97
2023-03-07T05:43:49.567Z,92734.91
2023-03-07T05:46:15.999Z,92713.06
2023-03-07T05:48:42.401Z,92695.19
2023-03-07T05:51:08.753Z,92666.63
2023-03-07T05:53:35.382Z,92636.41
2023-03-07T05:56:01.729Z,92610.59
2023-03-07T05:58:28.052Z,92586.41
2023-03-07T06:00:54.567Z,92568.34
2023-03-07T06:03:20.987Z,92559.00
2023-03-07T06:05:50.554Z,92528.00
2023-03-07T06:08:17.132Z,92528.00
2023-03-07T06:10:43.484Z,92519.69
2023-03-07T06:13:15.416Z,92533.97
2023-03-07T06:15:42.054Z,92566.66
2023-03-07T06:18:08.422Z,92614.91
2023-03-07T06:20:34.814Z,92631.44
2023-03-07T06:23:01.216Z,92640.75
2023-03-07T06:25:27.539Z,92645.91
2023-03-07T06:27:59.578Z,92659.00
2023-03-07T06:30:26.023Z,92667.34
2023-03-07T06:32:52.411Z,92691.16
2023-03-07T06:35:18.771Z,92728.75
2023-03-07T06:37:45.305Z,92737.63
2023-03-07T06:40:11.989Z,92755.81
2023-03-07T06:42:38.351Z,92777.78
2023-03-07T06:45:05.438Z,92764.28
2023-03-07T06:47:31.804Z,92778.16
2023-03-07T06:49:58.185Z,92771.03
2023-03-07T06:52:24.834Z,92773.25
2023-03-07T06:54:51.226Z,92768.25
2023-03-07T06:57:17.787Z,92769.50
2023-03-07T06:59:44.407Z,92773.88
2023-03-07T07:02:12.722Z,92758.81
2023-03-07T07:04:39.153Z,92741.81
2023-03-07T07:07:07.304Z,92730.75
2023-03-07T07:09:34.277Z,92713.66
2023-03-07T07:12:00.602Z,92701.38
2023-03-07T07:14:26.999Z,92696.22
2023-03-07T07:16:53.370Z,92690.06
2023-03-07T07:19:19.792Z,92699.03
2023-03-07T07:21:46.438Z,92690.28
2023-03-07T07:24:12.906Z,92689.75
2023-03-07T07:26:39.251Z,92667.28
2023-03-07T07:29:05.622Z,92664.16
2023-03-07T07:31:31.988Z,92655.84
2023-03-07T07:33:58.614Z,92632.88
2023-03-07T07:36:25.272Z,92611.81
2023-03-07T07:38:51.658Z,92585.28
2023-03-07T07:41:21.006Z,92558.06
2023-03-07T07:43:50.116Z,92540.78
2023-03-07T07:46:16.519Z,92500.69
2023-03-07T07:48:42.941Z,92488.81
2023-03-07T07:51:09.366Z,92504.28
2023-03-07T07:53:35.793Z,92551.97
2023-03-07T07:56:02.165Z,92661.97
2023-03-07T07:58:28.575Z,92819.69
2023-03-07T08:00:54.980Z,93026.00
2023-03-07T08:03:21.734Z,93180.56
2023-03-07T08:05:48.690Z,93339.59
2023-03-07T08:08:16.316Z,93438.03
2023-03-07T08:10:44.143Z,93508.72
2023-03-07T08:13:14.051Z,93555.88
2023-03-07T08:15:40.859Z,93557.47
2023-03-07T08:18:07.234Z,93525.34
2023-03-07T08:20:34.022Z,93503.09
2023-03-07T08:23:00.348Z,93493.22
2023-03-07T08:25:26.699Z,93458.56
2023-03-07T08:27:54.949Z,93425.66
2023-03-07T08:30:25.539Z,93379.28
2023-03-07T08:32:52.598Z,93329.69
2023-03-07T08:35:19.264Z,93299.53
2023-03-07T08:37:45.804Z,93286.34
2023-03-07T08:40:14.295Z,93267.72
2023-03-07T08:42:40.842Z,93235.13
2023-03-07T08:45:07.685Z,93214.81
2023-03-07T08:47:34.118Z,93193.56
2023-03-07T08:50:00.536Z,93166.75
2023-03-07T08:52:26.893Z,93162.56
2023-03-07T08:54:53.267Z,93142.53
2023-03-07T08:57:19.664Z,93154.81
2023-03-07T08:59:46.009Z,93213.56
2023-03-07T09:02:12.446Z,93302.38
2023-03-07T09:04:39.071Z,93374.56
2023-03-07T09:07:05.475Z,93396.03
2023-03-07T09:09:31.805Z,93428.00
2023-03-07T09:11:58.213Z,93421.25
2023-03-07T09:14:24.585Z,93427.88
2023-03-07T09:16:50.938Z,93420.94
2023-03-07T09:19:17.325Z,93391.28
2023-03-07T09:21:43.723Z,93351.72
2023-03-07T09:24:10.092Z,93316.75
2023-03-07T09:26:36.688Z,93298.84
2023-03-07T09:29:03.071Z,93249.31
2023-03-07T09:31:29.430Z,93209.25
2023-03-07T09:33:56.683Z,93168.44
2023-03-07T09:36:23.242Z,93112.78
2023-03-07T09:38:49.658Z,93046.09
2023-03-07T09:41:28.260Z,93028.56
2023-03-07T09:44:00.398Z,93037.81
2023-03-07T09:47:10.435Z,93059.00
2023-03-07T09:49:49.901Z,93062.34
2023-03-07T09:52:24.648Z,93107.34
2023-03-07T09:55:11.608Z,93151.44
2023-03-07T09:57:50.088Z,93226.28
2023-03-07T10:00:26.973Z,93310.84
2023-03-07T10:02:54.930Z,93316.94
2023-03-07T10:05:31.288Z,93312.31
2023-03-07T10:07:57.923Z,93298.09
2023-03-07T10:10:26.030Z,93305.19
2023-03-07T10:13:17.878Z,93378.25
2023-03-07T10:15:47.653Z,93493.25
2023-03-07T10:18:42.597Z,93548.16
2023-03-07T10:21:17.883Z,93640.25
2023-03-07T10:24:12.594Z,93683.16
2023-03-07T10:26:44.005Z,93675.94
2023-03-07T10:29:15.576Z,93641.56
2023-03-07T10:31:44.876Z,93605.41
2023-03-07T10:34:26.435Z,93556.38
2023-03-07T10:37:21.052Z,93504.47
2023-03-07T10:39:54.563Z,93432.44
2023-03-07T10:42:25.261Z,93379.16
2023-03-07T10:44:51.769Z,93276.59
2023-03-07T10:47:23.366Z,93204.16
2023-03-07T10:49:51.350Z,93106.16
2023-03-07T10:52:28.278Z,92972.94
2023-03-07T10:54:55.437Z,92876.50
2023-03-07T10:57:26.795Z,92828.78
2023-03-07T10:59:53.208Z,92760.47
2023-03-07T11:02:28.721Z,92729.66
2023-03-07T11:04:55.182Z,92710.38
2023-03-07T11:07:31.899Z,92687.28
2023-03-07T11:09:59.086Z,92687.03
2023-03-07T11:12:26.743Z,92656.09
2023-03-07T11:15:00.207Z,92646.16
2023-03-07T11:17:46.356Z,92631.03
2023-03-07T11:20:24.282Z,92653.41
2023-03-07T11:22:52.133Z,92675.06
2023-03-07T11:25:23.131Z,92677.09
2023-03-07T11:27:52.597Z,92706.00
2023-03-07T11:30:19.155Z,92717.09
2023-03-07T11:33:00.377Z,92718.34
2023-03-07T11:35:50.256Z,92726.31
2023-03-07T11:38:31.909Z,92740.19
2023-03-07T11:41:04.001Z,92748.81
2023-03-07T11:43:52.147Z,92752.53
2023-03-07T11:46:30.790Z,92757.75
2023-03-07T11:49:06.008Z,92758.56
2023-03-07T11:51:44.781Z,92749.53
2023-03-07T11:54:11.260Z,92756.22
2023-03-07T11:56:40.727Z,92741.63
2023-03-07T11:59:17.444Z,92756.56
2023-03-07T12:01:54.410Z,92742.78
2023-03-07T12:04:39.885Z,92736.66
2023-03-07T12:07:21.499Z,92736.88
2023-03-07T12:10:31.611Z,92721.06
2023-03-07T12:13:39.423Z,92721.59
2023-03-07T12:16:32.457Z,92748.91
2023-03-07T12:19:32.834Z,92747.94
2023-03-07T12:22:06.198Z,92757.38
2023-03-07T12:24:38.297Z,92756.66
2023-03-07T12:27:19.770Z,92750.78
2023-03-07T12:29:51.812Z,92727.44
2023-03-07T12:32:21.214Z,92722.69
2023-03-07T12:34:56.259Z,92724.13
2023-03-07T12:37:25.195Z,92711.81
2023-03-07T12:40:02.036Z,92689.47
2023-03-07T12:42:31.916Z,92691.41
2023-03-07T12:45:07.401Z,92670.81
2023-03-07T12:47:55.865Z,92667.06
2023-03-07T12:50:37.699Z,92652.41
2023-03-07T12:53:10.429Z,92660.91
2023-03-07T12:55:44.948Z,92641.25
2023-03-07T12:58:34.369Z,92643.25
2023-03-07T13:01:07.258Z,92643.84
2023-03-07T13:04:12.759Z,92624.44
2023-03-07T13:06:41.561Z,92599.84
2023-03-07T13:09:07.977Z,92594.69
2023-03-07T13:11:34.737Z,92570.09
2023-03-07T13:14:02.375Z,92566.50
2023-03-07T13:16:47.748Z,92562.13
2023-03-07T13:19:39.300Z,92516.09
2023-03-07T13:22:14.907Z,92480.41
2023-03-07T13:24:41.965Z,92476.84
2023-03-07T13:27:18.361Z,92460.94
2023-03-07T13:30:03.052Z,92476.03
2023-03-07T13:32:48.472Z,92483.94
2023-03-07T13:35:37.613Z,92488.13
2023-03-07T13:38:22.821Z,92527.06
2023-03-07T13:41:11.679Z,92555.03
2023-03-07T13:43:44.387Z,92598.31
2023-03-07T13:46:29.656Z,92656.47
2023-03-07T13:48:56.070Z,92717.66
2023-03-07T13:51:22.486Z,92773.84
2023-03-07T13:53:57.056Z,92839.84
2023-03-07T13:56:28.530Z,92911.41
2023-03-07T13:58:56.799Z,92960.34
2023-03-07T14:01:42.865Z,93022.69
2023-03-07T14:04:39.393Z,93133.53
2023-03-07T14:07:35.092Z,93222.25
2023-03-07T14:10:23.085Z,93337.06
2023-03-07T14:13:14.191Z,93430.03
2023-03-07T14:16:17.894Z,93484.56
2023-03-07T14:19:06.038Z,93546.91
2023-03-07T14:21:41.486Z,93560.13
2023-03-07T14:24:54.800Z,93589.69
2023-03-07T14:27:21.148Z,93661.38
2023-03-07T14:29:52.255Z,93709.97
2023-03-07T14:32:30.211Z,93753.22
2023-03-07T14:34:57.218Z,93790.34
2023-03-07T14:37:30.301Z,93853.59
2023-03-07T14:39:59.954Z,93895.72
2023-03-07T14:42:48.663Z,93918.47
2023-03-07T14:45:39.698Z,93899.06
2023-03-07T14:48:29.247Z,93832.25
2023-03-07T14:50:56.065Z,93722.88
2023-03-07T14:53:24.791Z,93630.97
2023-03-07T14:55:53.629Z,93512.97
2023-03-07T14:58:23.926Z,93399.34
2023-03-07T15:01:00.713Z,93303.75
2023-03-07T15:03:27.405Z,93217.22
2023-03-07T15:05:55.685Z,93160.31
2023-03-07T15:08:30.580Z,93148.38
2023-03-07T15:11:02.241Z,93172.06
2023-03-07T15:13:32.329Z,93225.13
2023-03-07T15:16:04.665Z,93280.88
2023-03-07T15:18:33.822Z,93320.06
2023-03-07T15:21:00.189Z,93363.09
2023-03-07T15:23:30.004Z,93401.16
2023-03-07T15:26:06.994Z,93431.13
2023-03-07T15:28:38.003Z,93448.81
2023-03-07T15:31:04.881Z,93463.06
2023-03-07T15:33:31.963Z,93470.13
2023-03-07T15:36:13.759Z,93483.69
2023-03-07T15:38:41.888Z,93511.06
2023-03-07T15:41:27.574Z,93546.88
2023-03-07T15:44:07.384Z,93551.03
2023-03-07T15:46:33.789Z,93562.19
2023-03-07T15:49:00.158Z,93600.66
2023-03-07T15:51:27.391Z,93667.72
2023-03-07T15:54:04.390Z,93746.38
2023-03-07T15:56:34.598Z,93822.59
2023-03-07T15:59:02.723Z,93891.09
2023-03-07T16:01:29.096Z,93945.91
2023-03-07T16:04:05.559Z,94040.09
2023-03-07T16:06:37.990Z,94087.66
2023-03-07T16:09:05.475Z,94136.66
2023-03-07T16:11:32.319Z,94207.81
2023-03-07T16:13:58.689Z,94249.22
2023-03-07T16:16:29.225Z,94264.81
2023-03-07T16:18:57.802Z,94287.66
2023-03-07T16:21:24.387Z,94307.22
2023-03-07T16:23:50.897Z,94318.06
2023-03-07T16:26:22.025Z,94302.59
2023-03-07T16:28:49.275Z,94289.31
2023-03-07T16:31:16.520Z,94252.78
2023-03-07T16:33:43.775Z,94225.53
2023-03-07T16:36:10.681Z,94215.53
2023-03-07T16:38:37.098Z,94211.75
2023-03-07T16:41:06.195Z,94206.59
2023-03-07T16:43:38.726Z,94178.91
2023-03-07T16:46:07.074Z,94180.84
2023-03-07T16:48:33.660Z,94153.13
2023-03-07T16:51:00.495Z,94142.53
2023-03-07T16:53:26.871Z,94123.25
2023-03-07T16:55:54.405Z,94124.03
2023-03-07T16:58:23.045Z,94167.72
2023-03-07T17:00:49.451Z,94219.59
2023-03-07T17:03:16.055Z,94273.72
2023-03-07T17:05:42.437Z,94327.84
2023-03-07T17:08:08.869Z,94359.88
2023-03-07T17:10:36.342Z,94392.69
2023-03-07T17:13:02.734Z,94403.16
2023-03-07T17:15:33.075Z,94419.31
2023-03-07T17:18:00.383Z,94436.38
2023-03-07T17:20:26.981Z,94449.16
2023-03-07T17:22:53.844Z,94460.25
2023-03-07T17:25:21.037Z,94495.28
2023-03-07T17:27:59.651Z,94537.19
2023-03-07T17:30:27.854Z,94548.19
2023-03-07T17:32:54.288Z,94581.97
2023-03-07T17:35:20.741Z,94592.97
2023-03-07T17:37:49.778Z,94613.28
2023-03-07T17:40:16.171Z,94595.00
2023-03-07T17:42:42.849Z,94613.03
2023-03-07T17:45:10.940Z,94614.91
2023-03-07T17:47:37.300Z,94641.94
2023-03-07T17:50:05.376Z,94655.63
2023-03-07T17:52:32.567Z,94667.00
2023-03-07T17:54:59.264Z,94678.94
2023-03-07T17:57:26.716Z,94660.53
2023-03-07T17:59:54.161Z,94669.34
2023-03-07T18:02:20.659Z,94666.75
2023-03-07T18:04:47.095Z,94666.75
2023-03-07T18:07:13.640Z,94668.13
2023-03-07T18:09:40.012Z,94684.53
2023-03-07T18:12:06.828Z,94689.00
2023-03-07T18:14:33.369Z,94690.63
2023-03-07T18:16:59.822Z,94675.44
2023-03-07T18:19:27.394Z,94641.25
2023-03-07T18:21:54.430Z,94588.31
2023-03-07T18:24:23.002Z,94525.09
2023-03-07T18:26:49.732Z,94434.25
2023-03-07T18:29:16.272Z,94362.09
2023-03-07T18:31:42.913Z,94280.09
2023-03-07T18:34:09.282Z,94205.66
2023-03-07T18:36:35.692Z,94145.06
2023-03-07T18:39:02.143Z,94069.25
2023-03-07T18:41:28.577Z,93994.84
2023-03-07T18:43:56.072Z,93914.47
2023-03-07T18:46:23.697Z,93835.81
2023-03-07T18:48:50.324Z,93760.28
2023-03-07T18:51:18.378Z,93689.13
2023-03-07T18:53:44.785Z,93599.81
2023-03-07T18:56:15.129Z,93509.50
2023-03-07T18:58:41.745Z,93424.66
2023-03-07T19:01:12.263Z,93360.28
2023-03-07T19:03:38.780Z,93303.59
2023-03-07T19:06:05.456Z,93260.94
2023-03-07T19:08:31.867Z,93231.34
2023-03-07T19:11:01.712Z,93222.94
2023-03-07T19:13:28.312Z,93193.47
2023-03-07T19:16:08.416Z,93155.34
2023-03-07T19:18:35.168Z,93140.34
2023-03-07T19:21:08.525Z,93144.06
2023-03-07T19:23:34.967Z,93135.34
2023-03-07T19:26:05.325Z,93140.84
2023-03-07T19:28:31.778Z,93145.19
2023-03-07T19:30:58.273Z,93167.25
2023-03-07T19:33:25.029Z,93176.56
2023-03-07T19:36:21.558Z,93180.13
2023-03-07T19:38:48.926Z,93205.06
2023-03-07T19:41:16.650Z,93220.97
2023-03-07T19:43:43.095Z,93238.06
2023-03-07T19:46:11.016Z,93264.75
2023-03-07T19:48:39.808Z,93308.22
2023-03-07T19:51:19.809Z,93334.16
2023-03-07T19:53:46.778Z,93366.50
2023-03-07T19:56:24.503Z,93397.41
2023-03-07T19:58:50.984Z,93439.94
2023-03-07T20:01:18.852Z,93489.03
2023-03-07T20:03:45.383Z,93523.97
2023-03-07T20:06:18.731Z,93562.31
2023-03-07T20:08:49.764Z,93595.50
2023-03-07T20:11:20.997Z,93661.50
2023-03-07T20:13:48.120Z,93729.75
2023-03-07T20:16:15.945Z,93776.16
2023-03-07T20:18:42.409Z,93827.06
2023-03-07T20:21:10.548Z,93885.81
2023-03-07T20:23:37.089Z,93948.75
2023-03-07T20:26:11.130Z,94013.97
2023-03-07T20:28:37.752Z,94100.09
2023-03-07T20:31:05.735Z,94183.06
2023-03-07T20:33:32.094Z,94236.09
2023-03-07T20:36:09.528Z,94312.75
2023-03-07T20:38:36.927Z,94384.59
2023-03-07T20:41:05.126Z,94451.59
2023-03-07T20:43:32.193Z,94501.25
2023-03-07T20:46:05.711Z,94541.13
2023-03-07T20:48:32.225Z,94576.53
2023-03-07T20:51:21.275Z,94592.00
2023-03-07T20:53:48.448Z,94621.56
2023-03-07T20:56:14.987Z,94641.47
2023-03-07T20:58:41.458Z,94650.16
2023-03-07T21:01:07.824Z,94650.16
2023-03-07T21:03:34.255Z,94659.78
2023-03-07T21:06:01.328Z,94657.47
2023-03-07T21:08:28.868Z,94664.75
2023-03-07T21:11:02.611Z,94651.59
2023-03-07T21:13:29.110Z,94639.81
2023-03-07T21:15:56.549Z,94652.00
2023-03-07T21:18:23.298Z,94636.69
2023-03-07T21:20:49.668Z,94638.19
2023-03-07T21:23:16.152Z,94632.22
2023-03-07T21:25:42.673Z,94638.31
2023-03-07T21:28:09.005Z,94624.63
2023-03-07T21:30:35.416Z,94623.81
2023-03-07T21:33:01.995Z,94609.97
2023-03-07T21:35:28.387Z,94614.03
2023-03-07T21:37:54.815Z,94608.88
2023-03-07T21:40:21.452Z,94597.75
2023-03-07T21:42:47.935Z,94584.88
2023-03-07T21:45:14.513Z,94581.75
2023-03-07T21:47:41.415Z,94580.38
2023-03-07T21:50:08.296Z,94586.75
2023-03-07T21:52:34.628Z,94579.25
2023-03-07T21:55:01.165Z,94576.03
2023-03-07T21:57:28.836Z,94576.03
2023-03-07T21:59:55.194Z,94574.66
2023-03-07T22:02:22.985Z,94568.84
2023-03-07T22:04:49.884Z,94560.81
2023-03-07T22:07:16.313Z,94556.91
2023-03-07T22:09:42.678Z,94554.59
2023-03-07T22:12:09.070Z,94547.53
2023-03-07T22:14:35.417Z,94545.66
2023-03-07T22:17:01.945Z,94544.28
2023-03-07T22:19:28.292Z,94554.28
2023-03-07T22:21:54.623Z,94551.03
2023-03-07T22:24:21.015Z,94544.81
2023-03-07T22:26:47.348Z,94533.69
2023-03-07T22:29:13.763Z,94525.44
2023-03-07T22:31:40.186Z,94521.22
2023-03-07T22:34:06.629Z,94492.22
2023-03-07T22:36:33.002Z,94474.47
2023-03-07T22:38:59.688Z,94456.56
2023-03-07T22:41:26.270Z,94431.91
2023-03-07T22:43:52.715Z,94396.59
2023-03-07T22:46:19.388Z,94374.50
2023-03-07T22:48:45.843Z,94344.28
2023-03-07T22:51:14.158Z,94314.47
2023-03-07T22:53:40.951Z,94279.81
2023-03-07T22:56:29.420Z,94252.19
2023-03-07T22:58:56.141Z,94235.53
2023-03-07T23:01:24.337Z,94223.44
2023-03-07T23:03:51.136Z,94203.16
2023-03-07T23:06:17.634Z,94189.59
2023-03-07T23:08:45.340Z,94177.69
2023-03-07T23:11:11.834Z,94178.25
2023-03-07T23:13:38.408Z,94159.28
2023-03-07T23:16:08.431Z,94133.56
2023-03-07T23:18:34.961Z,94121.66
2023-03-07T23:21:02.695Z,94112.97
2023-03-07T23:23:29.041Z,94097.53
2023-03-07T23:25:55.394Z,94099.47
2023-03-07T23:28:21.984Z,94106.75
2023-03-07T23:30:48.802Z,94085.91
2023-03-07T23:33:15.201Z,94085.38
2023-03-07T23:35:41.782Z,94072.38
2023-03-07T23:38:08.200Z,94067.25
2023-03-07T23:40:37.238Z,94072.53
2023-03-07T23:43:04.269Z,94076.19
2023-03-07T23:45:30.888Z,94093.81
2023-03-07T23:47:57.293Z,94086.22
2023-03-07T23:50:24.001Z,94087.03
2023-03-07T23:52:50.337Z,94062.13
2023-03-07T23:55:16.769Z,94069.69
2023-03-07T23:57:43.219Z,94057.50
